sensor_id;sensor_type;location;lat;lon;timestamp;pressure;altitude;pressure_sealevel;temperature;humidity
64908;BME280;64365;-1.756;110.040;2023-01-09T00:02:24;99280.38;;;8.19;86.72
64908;BME280;64365;-1.756;110.040;2023-01-09T00:04:51;99276.22;;;8.18;86.80
64908;BME280;64365;-1.756;110.040;2023-01-09T00:07:17;99275.13;;;8.05;87.49
64908;BME280;64365;-1.756;110.040;2023-01-09T00:09:44;99277.03;;;8.08;87.47
64908;BME280;64365;-1.756;110.040;2023-01-09T00:12:10;99272.13;;;8.03;86.86
64908;BME280;64365;-1.756;110.040;2023-01-09T00:14:37;99261.91;;;8.01;87.11
64908;BME280;64365;-1.756;110.040;2023-01-09T00:17:03;99275.53;;;8.00;87.51
64908;BME280;64365;-1.756;110.040;2023-01-09T00:19:31;99273.66;;;7.93;87.55
64908;BME280;64365;-1.756;110.040;2023-01-09T00:21:58;99276.28;;;8.00;87.19
64908;BME280;64365;-1.756;110.040;2023-01-09T00:24:25;99269.13;;;7.90;87.67
64908;BME280;64365;-1.756;110.040;2023-01-09T00:26:51;99280.44;;;7.94;87.14
64908;BME280;64365;-1.756;110.040;2023-01-09T00:29:18;99277.81;;;7.90;87.32
64908;BME280;64365;-1.756;110.040;2023-01-09T00:31:44;99279.34;;;7.91;87.33
64908;BME280;64365;-1.756;110.040;2023-01-09T00:34:11;99271.03;;;7.89;87.14
64908;BME280;64365;-1.756;110.040;2023-01-09T00:36:39;99264.97;;;7.82;87.33
64908;BME280;64365;-1.756;110.040;2023-01-09T00:39:06;99274.44;;;7.79;87.42
64908;BME280;64365;-1.756;110.040;2023-01-09T00:41:35;99277.47;;;7.85;87.52
64908;BME280;64365;-1.756;110.040;2023-01-09T00:44:08;99278.22;;;7.82;87.40
64908;BME280;64365;-1.756;110.040;2023-01-09T00:46:38;99280.50;;;7.76;87.62
64908;BME280;64365;-1.756;110.040;2023-01-09T00:49:07;99284.25;;;7.75;87.77
64908;BME280;64365;-1.756;110.040;2023-01-09T00:51:34;99282.38;;;7.72;87.95
64908;BME280;64365;-1.756;110.040;2023-01-09T00:54:03;99274.09;;;7.70;87.65
64908;BME280;64365;-1.756;110.040;2023-01-09T00:56:30;99280.13;;;7.74;87.86
64908;BME280;64365;-1.756;110.040;2023-01-09T00:58:57;99285.03;;;7.68;88.07
64908;BME280;64365;-1.756;110.040;2023-01-09T01:01:23;99280.50;;;7.69;87.41
64908;BME280;64365;-1.756;110.040;2023-01-09T01:03:50;99290.31;;;7.68;87.67
64908;BME280;64365;-1.756;110.040;2023-01-09T01:06:17;99283.53;;;7.64;87.85
64908;BME280;64365;-1.756;110.040;2023-01-09T01:09:03;99288.84;;;7.56;87.91
64908;BME280;64365;-1.756;110.040;2023-01-09T01:11:30;99274.50;;;7.54;87.88
64908;BME280;64365;-1.756;110.040;2023-01-09T01:13:58;99275.63;;;7.49;88.26
64908;BME280;64365;-1.756;110.040;2023-01-09T01:16:24;99277.91;;;7.47;88.66
64908;BME280;64365;-1.756;110.040;2023-01-09T01:18:51;99272.97;;;7.42;88.90
64908;BME280;64365;-1.756;110.040;2023-01-09T01:21:18;99273.75;;;7.46;88.53
64908;BME280;64365;-1.756;110.040;2023-01-09T01:23:44;99286.19;;;7.42;88.61
64908;BME280;64365;-1.756;110.040;2023-01-09T01:26:14;99277.16;;;7.43;88.79
64908;BME280;64365;-1.756;110.040;2023-01-09T01:28:41;99284.69;;;7.41;89.13
64908;BME280;64365;-1.756;110.040;2023-01-09T01:31:15;99292.63;;;7.41;89.09
64908;BME280;64365;-1.756;110.040;2023-01-09T01:33:41;99281.28;;;7.40;88.71
64908;BME280;64365;-1.756;110.040;2023-01-09T01:36:08;99293.00;;;7.43;88.77
64908;BME280;64365;-1.756;110.040;2023-01-09T01:38:35;99288.06;;;7.45;88.72
64908;BME280;64365;-1.756;110.040;2023-01-09T01:41:02;99291.84;;;7.44;88.96
64908;BME280;64365;-1.756;110.040;2023-01-09T01:43:49;99289.22;;;7.44;89.25
64908;BME280;64365;-1.756;110.040;2023-01-09T01:46:16;99292.63;;;7.48;88.94
64908;BME280;64365;-1.756;110.040;2023-01-09T01:48:43;99269.59;;;7.27;89.12
64908;BME280;64365;-1.756;110.040;2023-01-09T01:51:10;99292.63;;;7.48;89.10
64908;BME280;64365;-1.756;110.040;2023-01-09T01:53:40;99309.22;;;7.49;89.28
64908;BME280;64365;-1.756;110.040;2023-01-09T01:56:10;99297.16;;;7.40;88.89
64908;BME280;64365;-1.756;110.040;2023-01-09T01:58:42;99308.47;;;7.45;88.68
64908;BME280;64365;-1.756;110.040;2023-01-09T02:01:11;99311.88;;;7.45;88.86
64908;BME280;64365;-1.756;110.040;2023-01-09T02:03:38;99314.91;;;7.47;88.78
64908;BME280;64365;-1.756;110.040;2023-01-09T02:06:07;99322.06;;;7.43;88.24
64908;BME280;64365;-1.756;110.040;2023-01-09T02:08:34;99313.75;;;7.45;88.65
64908;BME280;64365;-1.756;110.040;2023-01-09T02:11:02;99313.00;;;7.48;88.68
64908;BME280;64365;-1.756;110.040;2023-01-09T02:13:29;99315.25;;;7.38;88.51
64908;BME280;64365;-1.756;110.040;2023-01-09T02:16:14;99318.69;;;7.39;89.20
64908;BME280;64365;-1.756;110.040;2023-01-09T02:18:49;99325.09;;;7.41;89.18
64908;BME280;64365;-1.756;110.040;2023-01-09T02:21:31;99318.28;;;7.44;89.22
64908;BME280;64365;-1.756;110.040;2023-01-09T02:24:27;99328.13;;;7.47;89.06
64908;BME280;64365;-1.756;110.040;2023-01-09T02:27:08;99309.22;;;7.49;89.14
64908;BME280;64365;-1.756;110.040;2023-01-09T02:32:43;99310.72;;;7.53;89.20
64908;BME280;64365;-1.756;110.040;2023-01-09T02:35:22;99305.44;;;7.53;88.46
64908;BME280;64365;-1.756;110.040;2023-01-09T02:37:59;99306.97;;;7.47;88.34
64908;BME280;64365;-1.756;110.040;2023-01-09T02:40:31;99306.22;;;7.50;88.65
64908;BME280;64365;-1.756;110.040;2023-01-09T02:43:00;99297.91;;;7.48;88.70
64908;BME280;64365;-1.756;110.040;2023-01-09T02:45:27;99306.97;;;7.47;88.77
64908;BME280;64365;-1.756;110.040;2023-01-09T02:47:55;99306.97;;;7.44;88.92
64908;BME280;64365;-1.756;110.040;2023-01-09T02:50:27;99303.94;;;7.38;89.10
64908;BME280;64365;-1.756;110.040;2023-01-09T02:53:12;99314.13;;;7.39;89.51
64908;BME280;64365;-1.756;110.040;2023-01-09T02:55:55;99316.03;;;7.35;89.91
64908;BME280;64365;-1.756;110.040;2023-01-09T02:58:34;99303.94;;;7.38;89.08
64908;BME280;64365;-1.756;110.040;2023-01-09T03:01:14;99305.84;;;7.34;89.14
64908;BME280;64365;-1.756;110.040;2023-01-09T03:03:50;99304.72;;;7.35;89.40
64908;BME280;64365;-1.756;110.040;2023-01-09T03:06:29;99305.47;;;7.35;89.18
64908;BME280;64365;-1.756;110.040;2023-01-09T03:09:01;99311.50;;;7.36;89.21
64908;BME280;64365;-1.756;110.040;2023-01-09T03:11:34;99310.00;;;7.31;89.12
64908;BME280;64365;-1.756;110.040;2023-01-09T03:14:08;99301.69;;;7.22;89.47
64908;BME280;64365;-1.756;110.040;2023-01-09T03:16:37;99308.09;;;7.24;89.64
64908;BME280;64365;-1.756;110.040;2023-01-09T03:19:10;99299.78;;;7.22;89.63
64908;BME280;64365;-1.756;110.040;2023-01-09T03:21:39;99301.69;;;7.22;89.32
64908;BME280;64365;-1.756;110.040;2023-01-09T03:24:07;99296.41;;;7.25;89.74
64908;BME280;64365;-1.756;110.040;2023-01-09T03:26:34;99291.09;;;7.22;89.99
64908;BME280;64365;-1.756;110.040;2023-01-09T03:29:01;99292.63;;;7.23;90.30
64908;BME280;64365;-1.756;110.040;2023-01-09T03:31:27;99296.38;;;7.22;89.98
64908;BME280;64365;-1.756;110.040;2023-01-09T03:33:54;99292.22;;;7.14;90.42
64908;BME280;64365;-1.756;110.040;2023-01-09T03:36:24;99302.41;;;7.15;90.36
64908;BME280;64365;-1.756;110.040;2023-01-09T03:38:50;99295.63;;;7.14;90.24
64908;BME280;64365;-1.756;110.040;2023-01-09T03:41:18;99286.56;;;7.12;90.57
64908;BME280;64365;-1.756;110.040;2023-01-09T03:43:45;99288.81;;;7.06;90.09
64908;BME280;64365;-1.756;110.040;2023-01-09T03:46:13;99295.25;;;7.12;90.51
64908;BME280;64365;-1.756;110.040;2023-01-09T03:48:39;99300.91;;;7.14;89.92
64908;BME280;64365;-1.756;110.040;2023-01-09T03:51:06;99299.41;;;7.13;90.91
64908;BME280;64365;-1.756;110.040;2023-01-09T03:53:34;99297.91;;;7.12;90.99
64908;BME280;64365;-1.756;110.040;2023-01-09T03:56:00;99305.06;;;7.15;90.30
64908;BME280;64365;-1.756;110.040;2023-01-09T03:58:27;99295.25;;;7.08;90.44
64908;BME280;64365;-1.756;110.040;2023-01-09T04:00:57;99320.53;;;7.10;90.60
64908;BME280;64365;-1.756;110.040;2023-01-09T04:03:24;99303.16;;;7.08;90.28
64908;BME280;64365;-1.756;110.040;2023-01-09T04:05:51;99310.34;;;7.08;90.24
64908;BME280;64365;-1.756;110.040;2023-01-09T04:08:18;99303.94;;;7.05;90.29
64908;BME280;64365;-1.756;110.040;2023-01-09T04:10:47;99317.13;;;7.05;90.18
64908;BME280;64365;-1.756;110.040;2023-01-09T04:13:14;99307.31;;;7.02;90.15
64908;BME280;64365;-1.756;110.040;2023-01-09T04:15:40;99308.84;;;7.00;90.13
64908;BME280;64365;-1.756;110.040;2023-01-09T04:18:07;99309.56;;;6.97;90.20
64908;BME280;64365;-1.756;110.040;2023-01-09T04:20:34;99312.59;;;6.91;89.87
64908;BME280;64365;-1.756;110.040;2023-01-09T04:23:01;99310.31;;;6.90;90.71
64908;BME280;64365;-1.756;110.040;2023-01-09T04:25:27;99314.47;;;6.91;91.16
64908;BME280;64365;-1.756;110.040;2023-01-09T04:27:55;99303.91;;;6.91;90.45
64908;BME280;64365;-1.756;110.040;2023-01-09T04:30:22;99283.09;;;6.75;89.90
64908;BME280;64365;-1.756;110.040;2023-01-09T04:32:49;99314.84;;;6.89;90.22
64908;BME280;64365;-1.756;110.040;2023-01-09T04:35:17;99314.09;;;6.89;90.10
64908;BME280;64365;-1.756;110.040;2023-01-09T04:37:43;99314.09;;;6.89;89.76
64908;BME280;64365;-1.756;110.040;2023-01-09T04:40:11;99314.44;;;6.84;89.94
64908;BME280;64365;-1.756;110.040;2023-01-09T04:42:39;99314.47;;;6.87;89.67
64908;BME280;64365;-1.756;110.040;2023-01-09T04:45:09;99311.06;;;6.80;90.29
64908;BME280;64365;-1.756;110.040;2023-01-09T04:47:37;99312.56;;;6.84;89.76
64908;BME280;64365;-1.756;110.040;2023-01-09T04:50:04;99311.44;;;6.89;89.81
64908;BME280;64365;-1.756;110.040;2023-01-09T04:52:30;99316.72;;;6.93;89.56
64908;BME280;64365;-1.756;110.040;2023-01-09T04:54:57;99307.69;;;6.94;89.81
64908;BME280;64365;-1.756;110.040;2023-01-09T04:57:24;99300.50;;;6.83;89.57
64908;BME280;64365;-1.756;110.040;2023-01-09T04:59:50;99297.09;;;6.86;89.52
64908;BME280;64365;-1.756;110.040;2023-01-09T05:02:18;99310.31;;;6.94;90.45
64908;BME280;64365;-1.756;110.040;2023-01-09T05:04:45;99306.91;;;6.97;90.27
64908;BME280;64365;-1.756;110.040;2023-01-09T05:07:11;99302.41;;;7.01;90.02
64908;BME280;64365;-1.756;110.040;2023-01-09T05:09:38;99296.38;;;7.00;89.80
64908;BME280;64365;-1.756;110.040;2023-01-09T05:12:05;99300.53;;;7.05;89.73
64908;BME280;64365;-1.756;110.040;2023-01-09T05:14:32;99300.53;;;7.05;89.54
64908;BME280;64365;-1.756;110.040;2023-01-09T05:16:58;99257.84;;;6.74;89.83
64908;BME280;64365;-1.756;110.040;2023-01-09T05:19:26;99297.50;;;7.10;89.87
64908;BME280;64365;-1.756;110.040;2023-01-09T05:21:53;99265.41;;;6.86;89.61
64908;BME280;64365;-1.756;110.040;2023-01-09T05:24:20;99302.78;;;7.10;89.71
64908;BME280;64365;-1.756;110.040;2023-01-09T05:26:46;99300.91;;;7.11;89.52
64908;BME280;64365;-1.756;110.040;2023-01-09T05:29:13;99307.72;;;7.19;89.32
64908;BME280;64365;-1.756;110.040;2023-01-09T05:31:40;99304.69;;;7.28;89.62
64908;BME280;64365;-1.756;110.040;2023-01-09T05:34:07;99295.63;;;7.29;89.08
64908;BME280;64365;-1.756;110.040;2023-01-09T05:36:35;99291.09;;;7.22;88.88
64908;BME280;64365;-1.756;110.040;2023-01-09T05:39:01;99297.16;;;7.30;88.81
64908;BME280;64365;-1.756;110.040;2023-01-09T05:41:29;99296.78;;;7.35;89.09
64908;BME280;64365;-1.756;110.040;2023-01-09T05:43:56;99293.38;;;7.41;89.34
64908;BME280;64365;-1.756;110.040;2023-01-09T05:46:23;99292.22;;;7.42;88.82
64908;BME280;64365;-1.756;110.040;2023-01-09T05:48:49;99300.16;;;7.46;88.55
64908;BME280;64365;-1.756;110.040;2023-01-09T05:51:16;99293.75;;;7.44;88.74
64908;BME280;64365;-1.756;110.040;2023-01-09T05:53:44;99293.00;;;7.36;88.74
64908;BME280;64365;-1.756;110.040;2023-01-09T05:56:11;99296.75;;;7.38;88.77
64908;BME280;64365;-1.756;110.040;2023-01-09T05:58:37;99289.22;;;7.37;88.00
64908;BME280;64365;-1.756;110.040;2023-01-09T06:01:04;99283.94;;;7.37;88.18
64908;BME280;64365;-1.756;110.040;2023-01-09T06:03:31;99284.72;;;7.27;88.70
64908;BME280;64365;-1.756;110.040;2023-01-09T06:05:58;99279.03;;;7.32;88.47
64908;BME280;64365;-1.756;110.040;2023-01-09T06:08:24;99285.81;;;7.40;88.47
64908;BME280;64365;-1.756;110.040;2023-01-09T06:10:52;99285.44;;;7.45;88.42
64908;BME280;64365;-1.756;110.040;2023-01-09T06:13:19;99280.53;;;7.54;88.02
64908;BME280;64365;-1.756;110.040;2023-01-09T06:15:46;99274.50;;;7.50;87.48
64908;BME280;64365;-1.756;110.040;2023-01-09T06:18:13;99283.56;;;7.53;88.12
64908;BME280;64365;-1.756;110.040;2023-01-09T06:20:40;99279.00;;;7.53;88.56
64908;BME280;64365;-1.756;110.040;2023-01-09T06:23:06;99280.50;;;7.65;87.72
64908;BME280;64365;-1.756;110.040;2023-01-09T06:25:33;99286.94;;;7.68;88.26
64908;BME280;64365;-1.756;110.040;2023-01-09T06:28:01;99280.88;;;7.71;88.17
64908;BME280;64365;-1.756;110.040;2023-01-09T06:30:27;99284.66;;;7.73;87.75
64908;BME280;64365;-1.756;110.040;2023-01-09T06:32:54;99283.13;;;7.72;87.16
64908;BME280;64365;-1.756;110.040;2023-01-09T06:35:20;99270.69;;;7.66;86.94
64908;BME280;64365;-1.756;110.040;2023-01-09T06:37:47;99265.38;;;7.69;87.67
64908;BME280;64365;-1.756;110.040;2023-01-09T06:40:14;99272.94;;;7.74;87.39
64908;BME280;64365;-1.756;110.040;2023-01-09T06:42:44;99264.63;;;7.76;87.36
64908;BME280;64365;-1.756;110.040;2023-01-09T06:45:13;99263.09;;;7.79;88.36
64908;BME280;64365;-1.756;110.040;2023-01-09T06:47:40;99263.47;;;7.88;87.84
64908;BME280;64365;-1.756;110.040;2023-01-09T06:50:07;99260.81;;;7.88;87.78
64908;BME280;64365;-1.756;110.040;2023-01-09T06:52:34;99272.16;;;7.92;87.30
64908;BME280;64365;-1.756;110.040;2023-01-09T06:55:01;99266.50;;;7.86;87.39
64908;BME280;64365;-1.756;110.040;2023-01-09T06:57:27;99265.38;;;7.84;87.87
64908;BME280;64365;-1.756;110.040;2023-01-09T06:59:54;99260.81;;;7.84;88.44
64908;BME280;64365;-1.756;110.040;2023-01-09T07:02:22;99261.19;;;7.93;88.11
64908;BME280;64365;-1.756;110.040;2023-01-09T07:04:49;99253.25;;;7.97;88.02
64908;BME280;64365;-1.756;110.040;2023-01-09T07:07:15;99266.09;;;7.99;87.71
64908;BME280;64365;-1.756;110.040;2023-01-09T07:09:43;99263.06;;;8.00;88.17
64908;BME280;64365;-1.756;110.040;2023-01-09T07:12:10;99264.53;;;8.05;87.96
64908;BME280;64365;-1.756;110.040;2023-01-09T07:14:37;99267.19;;;8.08;87.91
64908;BME280;64365;-1.756;110.040;2023-01-09T07:17:03;99261.88;;;8.05;87.45
64908;BME280;64365;-1.756;110.040;2023-01-09T07:19:31;99271.72;;;8.04;87.30
64908;BME280;64365;-1.756;110.040;2023-01-09T07:21:58;99275.13;;;8.05;87.87
64908;BME280;64365;-1.756;110.040;2023-01-09T07:24:24;99266.47;;;7.97;88.22
64908;BME280;64365;-1.756;110.040;2023-01-09T07:26:51;99275.91;;;8.02;88.95
64908;BME280;64365;-1.756;110.040;2023-01-09T07:29:17;99265.66;;;8.11;89.67
64908;BME280;64365;-1.756;110.040;2023-01-09T07:31:44;99265.28;;;8.16;89.50
64908;BME280;64365;-1.756;110.040;2023-01-09T07:34:11;99269.44;;;8.14;89.89
64908;BME280;64365;-1.756;110.040;2023-01-09T07:36:39;99269.44;;;8.10;89.81
64908;BME280;64365;-1.756;110.040;2023-01-09T07:39:05;99281.50;;;8.18;89.49
64908;BME280;64365;-1.756;110.040;2023-01-09T07:41:33;99285.28;;;8.24;89.17
64908;BME280;64365;-1.756;110.040;2023-01-09T07:43:59;99286.00;;;8.29;88.74
64908;BME280;64365;-1.756;110.040;2023-01-09T07:46:26;99290.19;;;8.30;89.12
64908;BME280;64365;-1.756;110.040;2023-01-09T07:48:53;99295.44;;;8.33;88.98
64908;BME280;64365;-1.756;110.040;2023-01-09T07:51:19;99286.75;;;8.33;89.51
64908;BME280;64365;-1.756;110.040;2023-01-09T07:53:47;99288.97;;;8.41;90.07
64908;BME280;64365;-1.756;110.040;2023-01-09T07:56:14;99295.41;;;8.48;89.69
64908;BME280;64365;-1.756;110.040;2023-01-09T07:58:40;99300.69;;;8.51;89.29
64908;BME280;64365;-1.756;110.040;2023-01-09T08:01:07;99296.88;;;8.52;89.37
64908;BME280;64365;-1.756;110.040;2023-01-09T08:03:33;99301.44;;;8.55;89.94
64908;BME280;64365;-1.756;110.040;2023-01-09T08:06:00;99297.25;;;8.58;89.13
64908;BME280;64365;-1.756;110.040;2023-01-09T08:08:27;99300.66;;;8.58;89.17
64908;BME280;64365;-1.756;110.040;2023-01-09T08:10:55;99297.63;;;8.56;89.07
64908;BME280;64365;-1.756;110.040;2023-01-09T08:13:21;99300.72;;;8.48;89.00
64908;BME280;64365;-1.756;110.040;2023-01-09T08:15:48;99309.06;;;8.39;89.01
64908;BME280;64365;-1.756;110.040;2023-01-09T08:18:14;99319.25;;;8.33;89.70
64908;BME280;64365;-1.756;110.040;2023-01-09T08:20:41;99319.66;;;8.32;90.19
64908;BME280;64365;-1.756;110.040;2023-01-09T08:23:07;99321.16;;;8.36;90.74
64908;BME280;64365;-1.756;110.040;2023-01-09T08:25:34;99324.53;;;8.40;90.71
64908;BME280;64365;-1.756;110.040;2023-01-09T08:28:02;99318.88;;;8.42;90.85
64908;BME280;64365;-1.756;110.040;2023-01-09T08:30:28;99333.22;;;8.45;90.87
64908;BME280;64365;-1.756;110.040;2023-01-09T08:32:55;99341.56;;;8.43;90.93
64908;BME280;64365;-1.756;110.040;2023-01-09T08:35:21;99336.66;;;8.45;91.05
64908;BME280;64365;-1.756;110.040;2023-01-09T08:37:48;99348.34;;;8.44;91.36
64908;BME280;64365;-1.756;110.040;2023-01-09T08:40:15;99353.66;;;8.51;91.74
64908;BME280;64365;-1.756;110.040;2023-01-09T08:42:42;99345.72;;;8.51;91.73
64908;BME280;64365;-1.756;110.040;2023-01-09T08:45:28;99371.00;;;8.63;91.34
64908;BME280;64365;-1.756;110.040;2023-01-09T08:48:12;99363.44;;;8.62;91.80
64908;BME280;64365;-1.756;110.040;2023-01-09T08:50:39;99375.16;;;8.71;92.21
64908;BME280;64365;-1.756;110.040;2023-01-09T08:53:05;99381.53;;;8.81;91.61
64908;BME280;64365;-1.756;110.040;2023-01-09T08:55:32;99395.88;;;8.87;91.66
64908;BME280;64365;-1.756;110.040;2023-01-09T08:57:58;99396.97;;;8.97;91.78
64908;BME280;64365;-1.756;110.040;2023-01-09T09:00:25;99399.59;;;9.04;92.09
64908;BME280;64365;-1.756;110.040;2023-01-09T09:02:54;99413.16;;;9.14;91.78
64908;BME280;64365;-1.756;110.040;2023-01-09T09:05:22;99413.53;;;9.16;91.36
64908;BME280;64365;-1.756;110.040;2023-01-09T09:07:50;99424.13;;;9.16;91.44
64908;BME280;64365;-1.756;110.040;2023-01-09T09:10:18;99414.69;;;9.11;91.61
64908;BME280;64365;-1.756;110.040;2023-01-09T09:12:47;99433.94;;;9.22;92.28
64908;BME280;64365;-1.756;110.040;2023-01-09T09:15:14;99436.53;;;9.33;92.29
64908;BME280;64365;-1.756;110.040;2023-01-09T09:17:48;99439.16;;;9.37;91.30
64908;BME280;64365;-1.756;110.040;2023-01-09T09:20:16;99442.94;;;9.36;91.12
64908;BME280;64365;-1.756;110.040;2023-01-09T09:22:45;99443.72;;;9.36;91.04
64908;BME280;64365;-1.756;110.040;2023-01-09T09:25:12;99463.03;;;9.40;90.72
64908;BME280;64365;-1.756;110.040;2023-01-09T09:27:38;99474.75;;;9.39;90.26
64908;BME280;64365;-1.756;110.040;2023-01-09T09:30:06;99478.16;;;9.40;90.24
64908;BME280;64365;-1.756;110.040;2023-01-09T09:32:33;99486.88;;;9.40;90.39
64908;BME280;64365;-1.756;110.040;2023-01-09T09:35:00;99493.28;;;9.43;90.83
64908;BME280;64365;-1.756;110.040;2023-01-09T09:37:28;99503.53;;;9.44;90.49
64908;BME280;64365;-1.756;110.040;2023-01-09T09:39:54;99507.72;;;9.42;90.53
64908;BME280;64365;-1.756;110.040;2023-01-09T09:42:34;99518.31;;;9.42;90.45
64908;BME280;64365;-1.756;110.040;2023-01-09T09:45:31;99521.72;;;9.42;90.17
64908;BME280;64365;-1.756;110.040;2023-01-09T09:48:08;99528.13;;;9.45;90.51
64908;BME280;64365;-1.756;110.040;2023-01-09T09:51:10;99532.69;;;9.44;90.73
64908;BME280;64365;-1.756;110.040;2023-01-09T09:53:44;99540.66;;;9.44;90.35
64908;BME280;64365;-1.756;110.040;2023-01-09T09:56:15;99531.56;;;9.42;90.45
64908;BME280;64365;-1.756;110.040;2023-01-09T09:58:46;99557.66;;;9.54;90.70
64908;BME280;64365;-1.756;110.040;2023-01-09T10:01:15;99558.00;;;9.56;90.96
64908;BME280;64365;-1.756;110.040;2023-01-09T10:03:46;99566.69;;;9.64;90.97
64908;BME280;64365;-1.756;110.040;2023-01-09T10:06:16;99579.19;;;9.67;90.89
64908;BME280;64365;-1.756;110.040;2023-01-09T10:08:52;99582.59;;;9.68;90.58
64908;BME280;64365;-1.756;110.040;2023-01-09T10:11:25;99595.09;;;9.71;90.56
64908;BME280;64365;-1.756;110.040;2023-01-09T10:13:54;99598.47;;;9.75;91.25
64908;BME280;64365;-1.756;110.040;2023-01-09T10:16:39;99591.63;;;9.81;90.74
64908;BME280;64365;-1.756;110.040;2023-01-09T10:19:20;99609.44;;;9.84;90.51
64908;BME280;64365;-1.756;110.040;2023-01-09T10:21:57;99616.59;;;9.87;89.99
64908;BME280;64365;-1.756;110.040;2023-01-09T10:24:40;99618.50;;;9.90;90.35
64908;BME280;64365;-1.756;110.040;2023-01-09T10:27:16;99613.53;;;9.96;89.28
64908;BME280;64365;-1.756;110.040;2023-01-09T10:30:02;99623.78;;;9.98;89.36
64908;BME280;64365;-1.756;110.040;2023-01-09T10:32:41;99626.78;;;10.00;89.66
64908;BME280;64365;-1.756;110.040;2023-01-09T10:35:29;99624.09;;;10.07;89.17
64908;BME280;64365;-1.756;110.040;2023-01-09T10:38:01;99634.34;;;10.08;89.42
64908;BME280;64365;-1.756;110.040;2023-01-09T10:40:35;99640.38;;;10.13;88.98
64908;BME280;64365;-1.756;110.040;2023-01-09T10:43:08;99645.28;;;10.14;88.66
64908;BME280;64365;-1.756;110.040;2023-01-09T10:45:40;99642.63;;;10.14;89.40
64908;BME280;64365;-1.756;110.040;2023-01-09T10:48:17;99649.00;;;10.27;89.32
64908;BME280;64365;-1.756;110.040;2023-01-09T10:50:47;99658.84;;;10.38;88.75
64908;BME280;64365;-1.756;110.040;2023-01-09T10:53:26;99659.19;;;10.40;87.16
64908;BME280;64365;-1.756;110.040;2023-01-09T10:55:59;99667.56;;;10.42;87.58
64908;BME280;64365;-1.756;110.040;2023-01-09T10:58:26;99668.63;;;10.48;87.71
64908;BME280;64365;-1.756;110.040;2023-01-09T11:00:53;99673.19;;;10.48;87.31
64908;BME280;64365;-1.756;110.040;2023-01-09T11:03:21;99669.34;;;10.52;86.92
64908;BME280;64365;-1.756;110.040;2023-01-09T11:05:50;99670.09;;;10.56;87.06
64908;BME280;64365;-1.756;110.040;2023-01-09T11:08:22;99674.66;;;10.59;85.85
64908;BME280;64365;-1.756;110.040;2023-01-09T11:10:51;99676.91;;;10.61;85.62
64908;BME280;64365;-1.756;110.040;2023-01-09T11:13:21;99680.38;;;10.54;85.15
64908;BME280;64365;-1.756;110.040;2023-01-09T11:15:59;99697.44;;;10.53;84.95
64908;BME280;64365;-1.756;110.040;2023-01-09T11:18:26;99694.41;;;10.51;85.38
64908;BME280;64365;-1.756;110.040;2023-01-09T11:20:52;99687.22;;;10.48;84.98
64908;BME280;64365;-1.756;110.040;2023-01-09T11:23:25;99701.69;;;10.40;84.45
64908;BME280;64365;-1.756;110.040;2023-01-09T11:25:53;99691.84;;;10.33;84.86
64908;BME280;64365;-1.756;110.040;2023-01-09T11:28:21;99702.09;;;10.38;85.13
64908;BME280;64365;-1.756;110.040;2023-01-09T11:30:54;99707.34;;;10.49;84.97
64908;BME280;64365;-1.756;110.040;2023-01-09T11:33:24;99704.28;;;10.51;84.49
64908;BME280;64365;-1.756;110.040;2023-01-09T11:35:57;99711.88;;;10.52;84.35
64908;BME280;64365;-1.756;110.040;2023-01-09T11:38:25;99719.06;;;10.55;83.67
64908;BME280;64365;-1.756;110.040;2023-01-09T11:40:54;99715.63;;;10.58;83.93
64908;BME280;64365;-1.756;110.040;2023-01-09T11:43:27;99726.66;;;10.57;83.84
64908;BME280;64365;-1.756;110.040;2023-01-09T11:45:57;99736.50;;;10.56;83.71
64908;BME280;64365;-1.756;110.040;2023-01-09T11:48:30;99734.22;;;10.58;83.98
64908;BME280;64365;-1.756;110.040;2023-01-09T11:50:58;99733.84;;;10.56;83.92
64908;BME280;64365;-1.756;110.040;2023-01-09T11:53:25;99738.41;;;10.59;82.78
64908;BME280;64365;-1.756;110.040;2023-01-09T11:55:58;99734.63;;;10.57;83.89
64908;BME280;64365;-1.756;110.040;2023-01-09T11:58:30;99742.16;;;10.62;84.38
64908;BME280;64365;-1.756;110.040;2023-01-09T12:01:07;99738.75;;;10.61;85.29
64908;BME280;64365;-1.756;110.040;2023-01-09T12:06:39;99748.19;;;10.70;83.62
64908;BME280;64365;-1.756;110.040;2023-01-09T12:09:15;99756.16;;;10.70;83.52
64908;BME280;64365;-1.756;110.040;2023-01-09T12:11:49;99760.34;;;10.67;83.07
64908;BME280;64365;-1.756;110.040;2023-01-09T12:14:30;99757.75;;;10.60;83.49
64908;BME280;64365;-1.756;110.040;2023-01-09T12:17:29;99764.25;;;10.52;82.10
64908;BME280;64365;-1.756;110.040;2023-01-09T12:20:15;99771.88;;;10.42;82.04
64908;BME280;64365;-1.756;110.040;2023-01-09T12:22:53;99778.75;;;10.25;82.39
64908;BME280;64365;-1.756;110.040;2023-01-09T12:25:33;99770.41;;;10.23;83.70
64908;BME280;64365;-1.756;110.040;2023-01-09T12:28:29;99774.94;;;10.30;83.79
64908;BME280;64365;-1.756;110.040;2023-01-09T12:31:12;99770.41;;;10.38;82.69
64908;BME280;64365;-1.756;110.040;2023-01-09T12:33:46;99775.66;;;10.49;83.25
64908;BME280;64365;-1.756;110.040;2023-01-09T12:36:23;99768.78;;;10.55;82.57
64908;BME280;64365;-1.756;110.040;2023-01-09T12:38:54;99788.00;;;10.77;82.94
64908;BME280;64365;-1.756;110.040;2023-01-09T12:44:47;99774.72;;;10.77;81.65
64908;BME280;64365;-1.756;110.040;2023-01-09T12:47:43;99786.09;;;10.81;81.43
64908;BME280;64365;-1.756;110.040;2023-01-09T12:50:31;99789.19;;;10.69;82.11
64908;BME280;64365;-1.756;110.040;2023-01-09T12:53:14;99794.16;;;10.63;83.01
64908;BME280;64365;-1.756;110.040;2023-01-09T12:55:46;99791.13;;;10.65;83.43
64908;BME280;64365;-1.756;110.040;2023-01-09T12:58:30;99797.25;;;10.54;83.53
64908;BME280;64365;-1.756;110.040;2023-01-09T13:01:02;99799.94;;;10.47;83.97
64908;BME280;64365;-1.756;110.040;2023-01-09T13:03:36;99796.56;;;10.36;83.31
64908;BME280;64365;-1.756;110.040;2023-01-09T13:06:05;99801.88;;;10.32;83.78
64908;BME280;64365;-1.756;110.040;2023-01-09T13:08:39;99816.31;;;10.27;84.07
64908;BME280;64365;-1.756;110.040;2023-01-09T13:11:10;99807.59;;;10.27;84.20
64908;BME280;64365;-1.756;110.040;2023-01-09T13:13:44;99812.13;;;10.26;83.91